Time;durP1;ratioP1;P1;durP2;ratioP2;P2;SDS_P1;SDS_P2;PMS_P1;PMS_P2;Temp;Humidity;BMP_temperature;BMP_pressure;BME280_temperature;BME280_humidity;BME280_pressure;Samples;Min_cycle;Max_cycle;Signal;HPM_P1;HPM_P2
2022/06/05 00:01:28;;;;;;;;;;;21.30;98.60;;;;;;4318278;33;43486;-78
2022/06/05 00:04:02;;;;;;;;;;;21.30;99.10;;;;;;4318328;33;44276;-77
2022/06/05 00:06:48;;;;;;;;;;;21.30;99.90;;;;;;4305349;33;43037;-77
2022/06/05 00:09:18;;;;;;;;;;;21.30;99.90;;;;;;4318176;33;43106;-77
2022/06/05 00:11:53;;;;;;;;;;;21.30;99.70;;;;;;4318867;33;21091;-77
2022/06/05 00:14:21;;;;;;;;;;;21.30;99.90;;;;;;4318586;33;43847;-77
2022/06/05 00:16:48;;;;;;;;;;;21.30;99.10;;;;;;4305360;33;45797;-78
2022/06/05 00:19:15;;;;;;;;;;;21.30;99.50;;;;;;4305329;33;43315;-77
2022/06/05 00:21:42;;;;;;;;;;;21.30;99.50;;;;;;4318253;33;43498;-77
2022/06/05 00:24:09;;;;;;;;;;;21.20;99.50;;;;;;4304938;33;43023;-77
2022/06/05 00:26:50;;;;;;;;;;;21.30;99.70;;;;;;4304706;33;44355;-77
2022/06/05 00:29:37;;;;;;;;;;;21.20;99.90;;;;;;4305208;33;43428;-77
2022/06/05 00:32:11;;;;;;;;;;;21.00;99.90;;;;;;4305038;33;45714;-78
2022/06/05 00:34:38;;;;;;;;;;;20.90;99.90;;;;;;4304608;33;43176;-77
2022/06/05 00:37:05;;;;;;;;;;;20.80;99.90;;;;;;4304446;33;44224;-78
2022/06/05 00:39:55;;;;;;;;;;;20.90;99.90;;;;;;4305221;33;43567;-77
2022/06/05 00:42:24;;;;;;;;;;;20.90;99.90;;;;;;4310597;33;43908;-77
2022/06/05 00:45:21;;;;;;;;;;;20.90;99.90;;;;;;4318079;33;43482;-77
2022/06/05 00:47:48;;;;;;;;;;;20.80;99.90;;;;;;4292773;33;43490;-77
2022/06/05 00:50:17;;;;;;;;;;;20.80;99.90;;;;;;4304871;33;44382;-77
2022/06/05 00:52:49;;;;;;;;;;;20.80;99.90;;;;;;4304814;33;44907;-77
2022/06/05 00:55:16;;;;;;;;;;;20.80;99.90;;;;;;4317605;33;42716;-77
2022/06/05 00:57:44;;;;;;;;;;;20.80;99.90;;;;;;4317869;33;43474;-77
2022/06/05 01:00:16;;;;;;;;;;;20.90;99.90;;;;;;4304473;33;43041;-77
2022/06/05 01:02:45;;;;;;;;;;;20.90;99.90;;;;;;4303681;33;44169;-78
2022/06/05 01:05:14;;;;;;;;;;;20.80;99.90;;;;;;4316398;33;45189;-77
2022/06/05 01:07:41;;;;;;;;;;;20.70;99.90;;;;;;4316737;33;42892;-78
2022/06/05 01:10:10;;;;;;;;;;;20.70;99.90;;;;;;4303555;33;43543;-78
2022/06/05 01:12:40;;;;;;;;;;;20.70;99.90;;;;;;4303563;33;43975;-78
2022/06/05 01:15:19;;;;;;;;;;;20.70;99.90;;;;;;4316652;33;42536;-79
2022/06/05 01:17:46;;;;;;;;;;;20.60;99.90;;;;;;4316743;33;42851;-78
2022/06/05 01:20:31;;;;;;;;;;;20.60;99.90;;;;;;4316705;33;44091;-78
2022/06/05 01:22:59;;;;;;;;;;;20.60;99.90;;;;;;4316372;33;43362;-78
2022/06/05 01:25:32;;;;;;;;;;;20.60;99.90;;;;;;4316273;33;43478;-78
2022/06/05 01:28:03;;;;;;;;;;;20.50;99.90;;;;;;4316259;33;43910;-79
2022/06/05 01:30:35;;;;;;;;;;;20.50;99.90;;;;;;4303143;33;42712;-79
2022/06/05 01:33:04;;;;;;;;;;;20.50;99.90;;;;;;4316360;33;42144;-79
2022/06/05 01:35:34;;;;;;;;;;;20.50;99.90;;;;;;4316140;33;43470;-78
2022/06/05 01:38:11;;;;;;;;;;;20.50;99.90;;;;;;4316528;33;44776;-78
2022/06/05 01:40:44;;;;;;;;;;;20.40;99.90;;;;;;4303633;33;42845;-79
2022/06/05 01:43:18;;;;;;;;;;;20.40;99.90;;;;;;4316681;33;23672;-78
2022/06/05 01:45:48;;;;;;;;;;;20.30;99.90;;;;;;4303301;33;43988;-78
2022/06/05 01:48:19;;;;;;;;;;;20.30;99.90;;;;;;4316319;33;43740;-78
2022/06/05 01:50:48;;;;;;;;;;;20.30;99.90;;;;;;4303127;33;42748;-78
2022/06/05 01:53:25;;;;;;;;;;;20.30;99.90;;;;;;4316013;33;43838;-78
2022/06/05 01:56:14;;;;;;;;;;;20.20;99.90;;;;;;4302853;33;44133;-77
2022/06/05 01:58:46;;;;;;;;;;;20.20;99.90;;;;;;4316243;33;44115;-78
2022/06/05 02:01:15;;;;;;;;;;;20.20;99.90;;;;;;4315921;33;44132;-78
2022/06/05 02:03:45;;;;;;;;;;;20.20;99.90;;;;;;4316549;33;44123;-78
2022/06/05 02:06:19;;;;;;;;;;;20.20;99.90;;;;;;4303333;33;43304;-78
2022/06/05 02:09:04;;;;;;;;;;;20.10;99.90;;;;;;4303689;33;42610;-78
2022/06/05 02:11:32;;;;;;;;;;;20.10;99.90;;;;;;4316889;33;44578;-78
2022/06/05 02:14:09;;;;;;;;;;;20.10;99.90;;;;;;4316900;33;43971;-77
2022/06/05 02:16:37;;;;;;;;;;;20.10;99.90;;;;;;4316810;33;43924;-78
2022/06/05 02:19:09;;;;;;;;;;;20.00;99.90;;;;;;4315948;33;43934;-78
2022/06/05 02:21:37;;;;;;;;;;;20.00;99.90;;;;;;4303111;33;43809;-77
2022/06/05 02:24:06;;;;;;;;;;;20.00;99.90;;;;;;4303669;33;43830;-77
2022/06/05 02:26:33;;;;;;;;;;;20.00;99.90;;;;;;4303286;33;43545;-77
2022/06/05 02:29:07;;;;;;;;;;;20.00;99.90;;;;;;4303431;33;43539;-78
2022/06/05 02:31:34;;;;;;;;;;;20.00;99.90;;;;;;4316313;33;43782;-77
2022/06/05 02:34:02;;;;;;;;;;;20.00;99.90;;;;;;4303280;33;44329;-78
2022/06/05 02:36:29;;;;;;;;;;;20.00;99.90;;;;;;4303033;33;43629;-78
2022/06/05 02:38:59;;;;;;;;;;;20.00;99.90;;;;;;4316092;33;43149;-78
2022/06/05 02:41:36;;;;;;;;;;;20.00;99.90;;;;;;4316345;33;44008;-78
2022/06/05 02:44:30;;;;;;;;;;;20.00;99.90;;;;;;4316939;33;20776;-78
2022/06/05 02:47:05;;;;;;;;;;;20.00;99.90;;;;;;4302890;33;43470;-78
2022/06/05 02:49:56;;;;;;;;;;;20.00;99.90;;;;;;4303392;33;43434;-77
2022/06/05 02:52:24;;;;;;;;;;;20.00;99.90;;;;;;4295244;33;42450;-78
2022/06/05 02:54:55;;;;;;;;;;;20.00;99.90;;;;;;4315779;33;43537;-78
2022/06/05 02:57:23;;;;;;;;;;;19.90;99.90;;;;;;4316436;33;44073;-78
2022/06/05 02:59:50;;;;;;;;;;;20.00;99.90;;;;;;4316347;33;43917;-78
2022/06/05 03:05:02;;;;;;;;;;;19.90;99.90;;;;;;4315816;33;41769;-78
2022/06/05 03:07:31;;;;;;;;;;;19.90;99.90;;;;;;4303130;33;44243;-78
2022/06/05 03:09:58;;;;;;;;;;;19.90;99.90;;;;;;4316233;33;43259;-78
2022/06/05 03:12:25;;;;;;;;;;;19.90;99.90;;;;;;4315709;33;44350;-78
2022/06/05 03:14:56;;;;;;;;;;;19.90;99.90;;;;;;4303736;33;19997;-78
2022/06/05 03:17:23;;;;;;;;;;;19.90;99.90;;;;;;4302997;33;43845;-78
2022/06/05 03:19:50;;;;;;;;;;;20.00;99.90;;;;;;4316228;33;43276;-78
2022/06/05 03:22:18;;;;;;;;;;;19.90;99.90;;;;;;4316206;33;44200;-78
2022/06/05 03:24:45;;;;;;;;;;;20.00;99.90;;;;;;4315647;33;42638;-77
2022/06/05 03:27:12;;;;;;;;;;;20.00;99.90;;;;;;4315520;33;43621;-78
2022/06/05 03:29:39;;;;;;;;;;;20.00;99.90;;;;;;4315492;33;43282;-78
2022/06/05 03:32:06;;;;;;;;;;;19.90;99.90;;;;;;4301777;33;44189;-77
2022/06/05 03:34:34;;;;;;;;;;;19.90;99.90;;;;;;4315413;33;43347;-78
2022/06/05 03:37:01;;;;;;;;;;;19.90;99.90;;;;;;4302357;33;43933;-77
2022/06/05 03:39:29;;;;;;;;;;;19.90;99.90;;;;;;4315338;33;44555;-77
2022/06/05 03:41:56;;;;;;;;;;;19.90;99.90;;;;;;4302269;33;45208;-77
2022/06/05 03:44:23;;;;;;;;;;;19.90;99.90;;;;;;4302708;33;43654;-77
2022/06/05 03:46:51;;;;;;;;;;;19.80;99.90;;;;;;4315409;33;44087;-77
2022/06/05 03:49:18;;;;;;;;;;;19.90;99.90;;;;;;4302829;33;43245;-77
2022/06/05 03:51:45;;;;;;;;;;;19.80;99.90;;;;;;4302298;33;42125;-77
2022/06/05 03:54:12;;;;;;;;;;;19.80;99.90;;;;;;4315597;33;43782;-77
2022/06/05 03:56:40;;;;;;;;;;;19.80;99.90;;;;;;4315739;33;44900;-76
2022/06/05 03:59:07;;;;;;;;;;;19.70;99.90;;;;;;4315213;33;44191;-76
2022/06/05 04:01:34;;;;;;;;;;;19.70;99.90;;;;;;4302236;33;43909;-76
2022/06/05 04:04:01;;;;;;;;;;;19.70;99.90;;;;;;4302053;33;44502;-76
2022/06/05 04:06:29;;;;;;;;;;;19.70;99.90;;;;;;4315575;33;43946;-76
2022/06/05 04:08:58;;;;;;;;;;;19.70;99.90;;;;;;4302714;33;46047;-78
2022/06/05 04:11:26;;;;;;;;;;;19.70;99.90;;;;;;4302123;33;43988;-77
2022/06/05 04:13:53;;;;;;;;;;;19.70;99.90;;;;;;4302609;33;42918;-76
2022/06/05 04:16:22;;;;;;;;;;;19.60;99.90;;;;;;4302586;33;43943;-76
2022/06/05 04:18:52;;;;;;;;;;;19.60;99.90;;;;;;4315063;33;44179;-77
2022/06/05 04:21:21;;;;;;;;;;;19.70;99.90;;;;;;4315300;33;42088;-76
2022/06/05 04:23:51;;;;;;;;;;;19.60;99.90;;;;;;4302574;33;44032;-76
2022/06/05 04:26:20;;;;;;;;;;;19.60;99.90;;;;;;4315576;33;43888;-76
2022/06/05 04:28:47;;;;;;;;;;;19.70;99.90;;;;;;4315602;33;43600;-77
2022/06/05 04:31:25;;;;;;;;;;;19.70;99.90;;;;;;4315308;33;44006;-77
2022/06/05 04:33:54;;;;;;;;;;;19.80;99.90;;;;;;4315330;33;44173;-77
2022/06/05 04:36:21;;;;;;;;;;;19.80;99.90;;;;;;4315025;33;45431;-77
2022/06/05 04:38:48;;;;;;;;;;;19.80;99.90;;;;;;4315535;33;43850;-77
2022/06/05 04:41:15;;;;;;;;;;;19.80;99.90;;;;;;4315477;33;44533;-77
2022/06/05 04:43:42;;;;;;;;;;;19.80;99.90;;;;;;4316815;33;42311;-77
2022/06/05 04:46:11;;;;;;;;;;;19.80;99.90;;;;;;4318113;33;43474;-77
2022/06/05 04:48:38;;;;;;;;;;;19.90;99.90;;;;;;4304988;33;43104;-77
2022/06/05 04:51:06;;;;;;;;;;;19.90;99.90;;;;;;4317517;33;44866;-77
2022/06/05 04:53:34;;;;;;;;;;;19.90;99.90;;;;;;4304393;33;44515;-77
2022/06/05 04:56:04;;;;;;;;;;;19.90;99.90;;;;;;4304466;33;42918;-77
2022/06/05 04:58:31;;;;;;;;;;;19.80;99.90;;;;;;4317372;33;42696;-77
2022/06/05 05:00:59;;;;;;;;;;;19.80;99.90;;;;;;4317672;33;44347;-78
2022/06/05 05:03:26;;;;;;;;;;;19.70;99.90;;;;;;4304129;33;43628;-78
2022/06/05 05:05:54;;;;;;;;;;;19.70;99.90;;;;;;4304638;33;43943;-77
2022/06/05 05:08:21;;;;;;;;;;;19.60;99.90;;;;;;4317193;33;43359;-78
2022/06/05 05:10:48;;;;;;;;;;;19.60;99.90;;;;;;4304638;33;45989;-78
2022/06/05 05:13:15;;;;;;;;;;;19.60;99.90;;;;;;4317263;33;43476;-78
2022/06/05 05:15:47;;;;;;;;;;;19.60;99.90;;;;;;4317418;33;44456;-78
2022/06/05 05:18:14;;;;;;;;;;;19.60;99.90;;;;;;4304544;33;44041;-78
2022/06/05 05:20:42;;;;;;;;;;;19.60;99.90;;;;;;4303932;33;42901;-79
2022/06/05 05:23:11;;;;;;;;;;;19.60;99.90;;;;;;4317228;33;43125;-79
2022/06/05 05:25:38;;;;;;;;;;;19.60;99.90;;;;;;4303983;33;43551;-79
2022/06/05 05:28:08;;;;;;;;;;;19.60;99.90;;;;;;4317333;33;45107;-78
2022/06/05 05:30:37;;;;;;;;;;;19.50;99.90;;;;;;4303867;33;43210;-79
2022/06/05 05:33:04;;;;;;;;;;;19.60;99.90;;;;;;4304284;33;43893;-79
2022/06/05 05:35:32;;;;;;;;;;;19.50;99.90;;;;;;4303847;33;43351;-78
2022/06/05 05:37:59;;;;;;;;;;;19.60;99.90;;;;;;4303871;33;44227;-78
2022/06/05 05:43:11;;;;;;;;;;;19.60;99.90;;;;;;4317318;33;43363;-78
2022/06/05 05:45:39;;;;;;;;;;;19.50;99.90;;;;;;4316662;33;45290;-78
2022/06/05 05:48:06;;;;;;;;;;;19.50;99.90;;;;;;4317270;33;45537;-78
2022/06/05 05:50:33;;;;;;;;;;;19.60;99.90;;;;;;4317382;33;43222;-78
2022/06/05 05:53:00;;;;;;;;;;;19.50;99.90;;;;;;4317118;33;44076;-78
2022/06/05 05:55:27;;;;;;;;;;;19.50;99.90;;;;;;4316205;33;45172;-78
2022/06/05 05:57:55;;;;;;;;;;;19.60;99.90;;;;;;4303901;33;43634;-78
2022/06/05 06:00:23;;;;;;;;;;;19.60;99.90;;;;;;4303291;33;43271;-79
2022/06/05 06:02:50;;;;;;;;;;;19.60;99.90;;;;;;4316655;33;45507;-77
2022/06/05 06:05:18;;;;;;;;;;;19.60;99.90;;;;;;4316913;33;45810;-78
2022/06/05 06:07:45;;;;;;;;;;;19.60;99.90;;;;;;4316684;33;44162;-77
2022/06/05 06:10:12;;;;;;;;;;;19.60;99.90;;;;;;4303626;33;44062;-79
2022/06/05 06:12:40;;;;;;;;;;;19.60;99.90;;;;;;4303670;33;45890;-80
2022/06/05 06:15:07;;;;;;;;;;;19.60;99.90;;;;;;4303635;33;44168;-79
2022/06/05 06:17:35;;;;;;;;;;;19.60;99.90;;;;;;4316947;33;25597;-78
2022/06/05 06:20:03;;;;;;;;;;;19.60;99.90;;;;;;4303491;33;45741;-79
2022/06/05 06:22:30;;;;;;;;;;;19.60;99.90;;;;;;4303302;33;43481;-79
2022/06/05 06:24:57;;;;;;;;;;;19.70;99.90;;;;;;4303201;33;43909;-79
2022/06/05 06:27:24;;;;;;;;;;;19.70;99.90;;;;;;4303491;33;43316;-79
2022/06/05 06:29:51;;;;;;;;;;;19.70;99.90;;;;;;4315978;33;45103;-79
2022/06/05 06:32:19;;;;;;;;;;;19.70;99.90;;;;;;4303629;33;44082;-79
2022/06/05 06:34:46;;;;;;;;;;;19.70;99.90;;;;;;4302905;33;44537;-79
2022/06/05 06:37:13;;;;;;;;;;;19.70;99.90;;;;;;4316512;33;44239;-79
2022/06/05 06:39:40;;;;;;;;;;;19.80;99.90;;;;;;4303429;33;36986;-79
2022/06/05 06:42:08;;;;;;;;;;;19.80;99.90;;;;;;4303244;33;44761;-79
2022/06/05 06:44:35;;;;;;;;;;;19.80;99.90;;;;;;4302904;33;44223;-79
2022/06/05 06:47:02;;;;;;;;;;;19.90;99.90;;;;;;4303260;33;45733;-78
2022/06/05 06:49:30;;;;;;;;;;;19.90;99.90;;;;;;4302885;33;43815;-79
2022/06/05 06:51:58;;;;;;;;;;;19.90;99.90;;;;;;4302811;33;43499;-79
2022/06/05 06:54:25;;;;;;;;;;;20.00;99.90;;;;;;4303081;33;45958;-78
2022/06/05 06:56:52;;;;;;;;;;;20.00;99.90;;;;;;4303152;33;45778;-79
2022/06/05 06:59:20;;;;;;;;;;;20.00;99.90;;;;;;4302734;33;43473;-78
2022/06/05 07:01:47;;;;;;;;;;;20.00;99.90;;;;;;4315717;33;43695;-78
2022/06/05 07:04:17;;;;;;;;;;;20.00;99.90;;;;;;4315720;33;44121;-80
2022/06/05 07:06:44;;;;;;;;;;;20.10;99.90;;;;;;4316052;33;43175;-78
2022/06/05 07:09:14;;;;;;;;;;;20.10;99.90;;;;;;4302974;33;44098;-79
2022/06/05 07:11:41;;;;;;;;;;;20.10;99.90;;;;;;4315589;33;45797;-79
2022/06/05 07:14:09;;;;;;;;;;;20.10;99.90;;;;;;4315880;33;41968;-79
2022/06/05 07:16:37;;;;;;;;;;;20.20;99.90;;;;;;4302785;33;43844;-80
2022/06/05 07:19:04;;;;;;;;;;;20.20;99.90;;;;;;4315995;33;43546;-80
2022/06/05 07:21:32;;;;;;;;;;;20.20;99.90;;;;;;4315671;33;44214;-79
2022/06/05 07:23:59;;;;;;;;;;;20.20;99.90;;;;;;4302520;33;43546;-79
2022/06/05 07:26:28;;;;;;;;;;;20.30;99.90;;;;;;4316014;33;43180;-80
2022/06/05 07:28:56;;;;;;;;;;;20.30;99.90;;;;;;4315967;33;43470;-79
2022/06/05 07:31:24;;;;;;;;;;;20.30;99.90;;;;;;4303004;33;43322;-79
2022/06/05 07:33:51;;;;;;;;;;;20.30;99.90;;;;;;4302813;33;43971;-79
2022/06/05 07:36:20;;;;;;;;;;;20.30;99.90;;;;;;4302321;33;43231;-79
2022/06/05 07:38:48;;;;;;;;;;;20.30;99.90;;;;;;4315345;33;45472;-79
2022/06/05 07:41:29;;;;;;;;;;;20.30;99.90;;;;;;4302886;33;44738;-80
2022/06/05 07:43:57;;;;;;;;;;;20.30;99.90;;;;;;4302637;33;43525;-80
2022/06/05 07:46:24;;;;;;;;;;;20.40;99.90;;;;;;4315515;33;43507;-80
2022/06/05 07:48:51;;;;;;;;;;;20.40;99.90;;;;;;4302753;33;44972;-79
2022/06/05 07:54:29;;;;;;;;;;;20.40;99.90;;;;;;4315924;33;43511;-79
2022/06/05 07:56:58;;;;;;;;;;;20.40;99.90;;;;;;4315487;33;44157;-79
2022/06/05 07:59:26;;;;;;;;;;;20.40;99.90;;;;;;4302597;33;43735;-79
2022/06/05 08:01:56;;;;;;;;;;;20.40;99.90;;;;;;4314969;33;45094;-79
2022/06/05 08:04:27;;;;;;;;;;;20.40;99.90;;;;;;4315560;33;44054;-79
2022/06/05 08:06:55;;;;;;;;;;;20.40;99.90;;;;;;4302277;33;42254;-79
2022/06/05 08:09:22;;;;;;;;;;;20.40;99.90;;;;;;4302176;33;43458;-79
2022/06/05 08:11:49;;;;;;;;;;;20.40;99.90;;;;;;4315658;33;44098;-79
2022/06/05 08:14:17;;;;;;;;;;;20.40;99.90;;;;;;4315243;33;43396;-79
2022/06/05 08:16:44;;;;;;;;;;;20.40;99.90;;;;;;4315872;33;43918;-80
2022/06/05 08:19:12;;;;;;;;;;;20.40;99.90;;;;;;4304520;33;44197;-80
2022/06/05 08:21:40;;;;;;;;;;;20.40;99.90;;;;;;4317992;33;42503;-79
2022/06/05 08:24:08;;;;;;;;;;;20.40;99.90;;;;;;4318315;33;43178;-79
2022/06/05 08:26:35;;;;;;;;;;;20.50;99.90;;;;;;4304746;33;43516;-80
2022/06/05 08:29:03;;;;;;;;;;;20.40;99.90;;;;;;4318057;33;42343;-80
2022/06/05 08:31:30;;;;;;;;;;;20.50;99.90;;;;;;4317905;33;44187;-80
2022/06/05 08:33:57;;;;;;;;;;;20.50;99.90;;;;;;4317822;33;43917;-80
2022/06/05 08:36:28;;;;;;;;;;;20.50;99.90;;;;;;4305375;33;42566;-80
2022/06/05 08:41:56;;;;;;;;;;;20.50;99.90;;;;;;4318205;33;44347;-79
2022/06/05 08:44:38;;;;;;;;;;;20.50;99.90;;;;;;4317893;33;43411;-79
2022/06/05 08:47:11;;;;;;;;;;;20.50;99.90;;;;;;4317656;33;42613;-79
2022/06/05 08:49:50;;;;;;;;;;;20.40;99.90;;;;;;4305328;33;20367;-79
2022/06/05 08:52:27;;;;;;;;;;;20.40;99.90;;;;;;4317591;33;43646;-79
2022/06/05 08:54:58;;;;;;;;;;;20.50;99.90;;;;;;4317543;33;42646;-79
2022/06/05 08:57:27;;;;;;;;;;;20.50;99.90;;;;;;4317954;33;45628;-78
2022/06/05 09:00:04;;;;;;;;;;;20.50;99.90;;;;;;4317843;33;43717;-78
2022/06/05 09:02:47;;;;;;;;;;;20.50;99.90;;;;;;4317999;33;43833;-79
2022/06/05 09:05:17;;;;;;;;;;;20.50;99.90;;;;;;4317481;33;42901;-77
2022/06/05 09:07:46;;;;;;;;;;;20.50;99.90;;;;;;4304516;33;43387;-79
2022/06/05 09:10:15;;;;;;;;;;;20.50;99.90;;;;;;4317286;33;43291;-79
2022/06/05 09:12:53;;;;;;;;;;;20.50;99.90;;;;;;4304102;33;43843;-79
2022/06/05 09:15:20;;;;;;;;;;;20.50;99.90;;;;;;4304625;33;44347;-79
2022/06/05 09:18:00;;;;;;;;;;;20.50;99.90;;;;;;4304190;33;43223;-79
2022/06/05 09:20:30;;;;;;;;;;;20.50;99.90;;;;;;4317700;33;43199;-78
2022/06/05 09:22:59;;;;;;;;;;;20.50;99.90;;;;;;4317643;33;43316;-79
2022/06/05 09:25:40;;;;;;;;;;;20.50;99.90;;;;;;4304465;33;44369;-78
2022/06/05 09:28:21;;;;;;;;;;;20.50;99.90;;;;;;4304392;33;43957;-78
2022/06/05 09:30:59;;;;;;;;;;;20.50;99.90;;;;;;4304560;33;43201;-78
2022/06/05 09:33:36;;;;;;;;;;;20.50;99.90;;;;;;4304369;33;44203;-78
2022/06/05 09:36:09;;;;;;;;;;;20.50;99.90;;;;;;4316924;33;44678;-79
2022/06/05 09:38:42;;;;;;;;;;;20.50;99.90;;;;;;4317559;33;44184;-78
2022/06/05 09:41:16;;;;;;;;;;;20.50;99.90;;;;;;4317565;33;43481;-78
2022/06/05 09:43:49;;;;;;;;;;;20.50;99.90;;;;;;4317319;33;43189;-78
2022/06/05 09:46:25;;;;;;;;;;;20.50;99.90;;;;;;4317382;33;43908;-78
2022/06/05 09:48:55;;;;;;;;;;;20.50;99.90;;;;;;4316803;33;42991;-78
2022/06/05 09:51:22;;;;;;;;;;;20.50;99.90;;;;;;4304762;33;20053;-79
2022/06/05 09:53:55;;;;;;;;;;;20.50;99.90;;;;;;4316705;33;43877;-78
2022/06/05 09:56:29;;;;;;;;;;;20.50;99.90;;;;;;4304680;33;45935;-79
2022/06/05 09:59:02;;;;;;;;;;;20.50;99.90;;;;;;4317069;33;43205;-78
2022/06/05 10:01:30;;;;;;;;;;;20.50;99.90;;;;;;4304275;33;43059;-78
2022/06/05 10:03:58;;;;;;;;;;;20.50;99.90;;;;;;4303351;33;43500;-78
2022/06/05 10:06:44;;;;;;;;;;;20.50;99.90;;;;;;4303843;33;42701;-78
2022/06/05 10:09:13;;;;;;;;;;;20.50;99.90;;;;;;4316398;33;44632;-79
2022/06/05 10:11:52;;;;;;;;;;;20.50;99.90;;;;;;4303451;33;42983;-78
2022/06/05 10:14:22;;;;;;;;;;;20.50;99.90;;;;;;4303698;33;43176;-78
2022/06/05 10:16:58;;;;;;;;;;;20.50;99.90;;;;;;4316400;33;43005;-78
2022/06/05 10:19:38;;;;;;;;;;;20.50;99.90;;;;;;4316803;33;44204;-78
2022/06/05 10:22:12;;;;;;;;;;;20.50;99.90;;;;;;4317365;33;20026;-78
2022/06/05 10:24:54;;;;;;;;;;;20.50;99.90;;;;;;4304029;33;43198;-79
2022/06/05 10:27:22;;;;;;;;;;;20.50;99.90;;;;;;4303784;33;44875;-79
2022/06/05 10:29:57;;;;;;;;;;;20.50;99.90;;;;;;4316194;33;43477;-78
2022/06/05 10:32:31;;;;;;;;;;;20.50;99.90;;;;;;4316469;33;42089;-80
2022/06/05 10:35:10;;;;;;;;;;;20.50;99.90;;;;;;4303497;33;44188;-79
2022/06/05 10:37:46;;;;;;;;;;;20.50;99.90;;;;;;4316685;33;44322;-77
2022/06/05 10:40:30;;;;;;;;;;;20.50;99.90;;;;;;4316148;33;43744;-80
2022/06/05 10:43:01;;;;;;;;;;;20.50;99.90;;;;;;4316660;33;44061;-81
2022/06/05 10:45:39;;;;;;;;;;;20.50;99.90;;;;;;4302902;33;44995;-81
2022/06/05 10:48:25;;;;;;;;;;;20.50;99.90;;;;;;4304184;33;43176;-82
2022/06/05 10:50:55;;;;;;;;;;;20.50;99.90;;;;;;4303201;33;43899;-80
2022/06/05 10:53:36;;;;;;;;;;;20.50;99.90;;;;;;4316001;33;43865;-79
2022/06/05 10:56:22;;;;;;;;;;;20.50;99.90;;;;;;4302869;33;42854;-80
2022/06/05 10:59:10;;;;;;;;;;;20.50;99.90;;;;;;4303246;33;44195;-81
2022/06/05 11:02:04;;;;;;;;;;;20.60;99.90;;;;;;4316064;33;43477;-80
2022/06/05 11:05:01;;;;;;;;;;;20.60;99.90;;;;;;4281542;33;42702;-81
2022/06/05 11:07:37;;;;;;;;;;;20.60;99.90;;;;;;4263920;33;43196;-81
2022/06/05 11:10:04;;;;;;;;;;;20.60;99.90;;;;;;4303338;33;44246;-81
2022/06/05 11:15:42;;;;;;;;;;;20.60;99.90;;;;;;4316161;33;43474;-81
2022/06/05 11:18:12;;;;;;;;;;;20.60;99.90;;;;;;4315605;33;42942;-81
2022/06/05 11:20:41;;;;;;;;;;;20.60;99.90;;;;;;4302487;33;43248;-80
2022/06/05 11:23:13;;;;;;;;;;;20.60;99.90;;;;;;4316169;33;43486;-82
2022/06/05 11:25:49;;;;;;;;;;;20.60;99.90;;;;;;4316132;33;44189;-81
2022/06/05 11:28:22;;;;;;;;;;;20.60;99.90;;;;;;4316249;33;43910;-80
2022/06/05 11:31:01;;;;;;;;;;;20.60;99.90;;;;;;4316034;33;43319;-80
2022/06/05 11:33:32;;;;;;;;;;;20.60;99.90;;;;;;4315463;33;44287;-80
2022/06/05 11:36:08;;;;;;;;;;;20.60;99.90;;;;;;4303045;33;43890;-80
2022/06/05 11:38:54;;;;;;;;;;;20.60;99.90;;;;;;4302361;33;44168;-79
2022/06/05 11:41:24;;;;;;;;;;;20.70;99.90;;;;;;4302454;33;42906;-81
2022/06/05 11:44:07;;;;;;;;;;;20.70;99.90;;;;;;4302340;33;43989;-79
2022/06/05 11:46:38;;;;;;;;;;;20.60;99.90;;;;;;4315876;33;43712;-79
2022/06/05 11:49:24;;;;;;;;;;;20.70;99.90;;;;;;4302934;33;41916;-79
2022/06/05 11:51:59;;;;;;;;;;;20.70;99.90;;;;;;4302812;33;44917;-80
2022/06/05 11:54:32;;;;;;;;;;;20.60;99.90;;;;;;4306272;33;19994;-80
2022/06/05 11:57:05;;;;;;;;;;;20.60;99.90;;;;;;4318491;33;43694;-81
2022/06/05 11:59:39;;;;;;;;;;;20.60;99.90;;;;;;4318773;33;43175;-81
2022/06/05 12:02:29;;;;;;;;;;;20.60;99.90;;;;;;4305282;33;45838;-81
2022/06/05 12:05:18;;;;;;;;;;;20.60;99.90;;;;;;4310978;33;42874;-81
2022/06/05 12:07:49;;;;;;;;;;;20.70;99.90;;;;;;4305674;33;43493;-82
2022/06/05 12:10:19;;;;;;;;;;;20.60;99.90;;;;;;4318519;33;45805;-81
2022/06/05 12:12:49;;;;;;;;;;;20.70;99.90;;;;;;4305370;33;44053;-82
2022/06/05 12:15:16;;;;;;;;;;;20.60;99.90;;;;;;4304978;33;42807;-84
2022/06/05 12:17:55;;;;;;;;;;;20.60;99.90;;;;;;4305180;33;42938;-86
2022/06/05 12:20:22;;;;;;;;;;;20.70;99.90;;;;;;4305558;33;44199;-86
2022/06/05 12:22:58;;;;;;;;;;;20.60;99.90;;;;;;4318064;33;42964;-85
2022/06/05 12:25:27;;;;;;;;;;;20.60;99.90;;;;;;4305768;33;43477;-83
2022/06/05 12:28:01;;;;;;;;;;;20.50;99.90;;;;;;4318068;33;43386;-82
2022/06/05 12:30:37;;;;;;;;;;;20.50;99.90;;;;;;4317900;33;42729;-81
2022/06/05 12:33:05;;;;;;;;;;;20.50;99.90;;;;;;4304598;33;42845;-83
2022/06/05 12:35:34;;;;;;;;;;;20.50;99.90;;;;;;4304739;33;42669;-83
2022/06/05 12:38:17;;;;;;;;;;;20.50;99.90;;;;;;4304830;33;43612;-83
2022/06/05 12:40:53;;;;;;;;;;;20.40;99.90;;;;;;4305130;33;45939;-84
2022/06/05 12:43:40;;;;;;;;;;;20.40;99.90;;;;;;4305241;33;43542;-81
2022/06/05 12:46:26;;;;;;;;;;;20.40;99.90;;;;;;4304962;33;43878;-84
2022/06/05 12:49:29;;;;;;;;;;;20.40;99.90;;;;;;4304934;33;43527;-79
2022/06/05 12:52:12;;;;;;;;;;;20.30;99.90;;;;;;4294815;33;43474;-82
2022/06/05 12:54:46;;;;;;;;;;;20.40;99.90;;;;;;4318502;33;20032;-81
2022/06/05 12:57:52;;;;;;;;;;;20.30;99.90;;;;;;4306935;33;43192;-82
2022/06/05 13:00:35;;;;;;;;;;;20.30;99.90;;;;;;4294789;33;43353;-81
2022/06/05 13:03:14;;;;;;;;;;;20.30;99.90;;;;;;4304197;33;43474;-82
2022/06/05 13:05:45;;;;;;;;;;;20.20;99.90;;;;;;4318040;33;43873;-81
2022/06/05 13:08:17;;;;;;;;;;;20.20;99.90;;;;;;4317505;33;44171;-81
2022/06/05 13:11:06;;;;;;;;;;;20.20;99.90;;;;;;4304797;33;43314;-81
2022/06/05 13:13:45;;;;;;;;;;;20.10;99.90;;;;;;4317923;33;42881;-81
2022/06/05 13:16:25;;;;;;;;;;;20.20;99.90;;;;;;4317760;33;46336;-82
2022/06/05 13:19:00;;;;;;;;;;;20.10;99.90;;;;;;4304550;33;44307;-81
2022/06/05 13:21:32;;;;;;;;;;;20.10;99.90;;;;;;4317570;33;41829;-80
2022/06/05 13:24:11;;;;;;;;;;;20.10;99.90;;;;;;4304534;33;44446;-82
2022/06/05 13:26:38;;;;;;;;;;;20.00;99.90;;;;;;4317323;33;43917;-82
2022/06/05 13:29:22;;;;;;;;;;;20.00;99.90;;;;;;4304416;33;44250;-83
2022/06/05 13:31:52;;;;;;;;;;;20.00;99.90;;;;;;4304552;33;44400;-81
2022/06/05 13:34:20;;;;;;;;;;;20.00;99.90;;;;;;4303783;33;44703;-82
2022/06/05 13:36:52;;;;;;;;;;;20.00;99.90;;;;;;4317456;33;43711;-82
2022/06/05 13:39:22;;;;;;;;;;;20.00;99.90;;;;;;4317010;33;44294;-80
2022/06/05 13:42:10;;;;;;;;;;;20.00;99.90;;;;;;4317332;33;43584;-84
2022/06/05 13:44:38;;;;;;;;;;;20.00;99.90;;;;;;4317439;33;43382;-82
2022/06/05 13:47:12;;;;;;;;;;;20.00;99.90;;;;;;4317314;33;42085;-83
2022/06/05 13:49:47;;;;;;;;;;;20.00;99.90;;;;;;4304307;33;43216;-85
2022/06/05 13:52:52;;;;;;;;;;;20.00;99.90;;;;;;4317003;33;43646;-82
2022/06/05 13:55:25;;;;;;;;;;;20.00;99.90;;;;;;4258759;33;20047;-81
2022/06/05 13:57:53;;;;;;;;;;;20.00;99.90;;;;;;4257531;33;43739;-81
2022/06/05 14:00:20;;;;;;;;;;;20.00;99.90;;;;;;4287924;33;44973;-81
2022/06/05 14:02:57;;;;;;;;;;;19.90;99.90;;;;;;4316381;33;45742;-81
2022/06/05 14:05:31;;;;;;;;;;;20.00;99.90;;;;;;4316598;33;44215;-82
2022/06/05 14:08:07;;;;;;;;;;;20.00;99.90;;;;;;4317197;33;44347;-82
2022/06/05 14:10:48;;;;;;;;;;;20.00;99.90;;;;;;4317271;33;43882;-79
2022/06/05 14:13:15;;;;;;;;;;;20.00;99.90;;;;;;4316866;33;42163;-81
2022/06/05 14:16:03;;;;;;;;;;;19.90;99.90;;;;;;4316055;33;45113;-80
2022/06/05 14:18:40;;;;;;;;;;;19.90;99.90;;;;;;4303907;33;43663;-81
2022/06/05 14:21:19;;;;;;;;;;;19.90;99.90;;;;;;4303729;33;42868;-81
2022/06/05 14:24:12;;;;;;;;;;;19.90;99.90;;;;;;4316692;33;44799;-81
2022/06/05 14:26:41;;;;;;;;;;;19.90;99.90;;;;;;4317248;33;20394;-81
2022/06/05 14:29:13;;;;;;;;;;;19.90;99.90;;;;;;4316220;33;42398;-81
2022/06/05 14:31:41;;;;;;;;;;;20.00;99.90;;;;;;4316893;33;43890;-81
2022/06/05 14:34:15;;;;;;;;;;;20.00;99.90;;;;;;4316668;33;43474;-82
2022/06/05 14:36:44;;;;;;;;;;;19.90;99.90;;;;;;4303529;33;43237;-82
2022/06/05 14:39:21;;;;;;;;;;;19.90;99.90;;;;;;4316292;33;43466;-82
2022/06/05 14:42:12;;;;;;;;;;;19.90;99.90;;;;;;4303591;33;45098;-81
2022/06/05 14:44:46;;;;;;;;;;;19.90;99.90;;;;;;4308388;33;44242;-81
2022/06/05 14:47:30;;;;;;;;;;;19.90;99.90;;;;;;4303001;33;42615;-82
2022/06/05 14:50:00;;;;;;;;;;;19.90;99.90;;;;;;4316375;33;46037;-81
2022/06/05 14:52:42;;;;;;;;;;;19.90;99.90;;;;;;4302753;33;44531;-81
2022/06/05 14:58:16;;;;;;;;;;;20.00;99.90;;;;;;4316812;33;19994;-81
2022/06/05 15:00:45;;;;;;;;;;;20.00;99.90;;;;;;4303053;33;43017;-80
2022/06/05 15:03:15;;;;;;;;;;;20.00;99.90;;;;;;4315565;33;43068;-81